Startpagina
METAR-TAF:

METAR-TAF

Vliegvelden :

Mendoza, Argentinië

breedte: 32-50S, lengte: 068-47W, hoogte: 705 m

Actueel weer

Dit bericht is 14 minuten geleden gemaakt, om 05:00 UTC
Weinig wind
Temperatuur 25°C
Vochtigheid 44%
Druk 1013 hPa
Zicht 10 km of meer
geen wolken onder 1500 m en geen cumulonimbus

METAR: SAME 200500Z 00000KT CAVOK 25/12 Q1013

Tijdstip: 02:14 (05:14 UTC)

Verwachting

Dit bericht is 12 uur en het 14 minuten geleden gemaakt, om 17:00 UTC
Verwachting geldig van 19 om 18 UTC tot 20 om 18 UTC
Wind 5 kt uit het noordoosten
Zicht 10 km of meer
Weinig wolken op 4000 ft
Verspreide wolken op 8000 ft
Wijzigt naar
van 19 om 22 UTC tot 19 om 24 UTC
Wind 10 kt uit het zuiden
Zicht 10 km of meer
Verspreide wolken op 3000 ft
Weinig wolken op 4000 ft, Cumulonimbus.
onweer in de omgeving, regen

TAF: SAME 191700Z 1918/2018 05005KT 9999 FEW040 SCT080 TX35/1920Z TN20/2010Z BECMG 1922/1924 18010KT 9999 VCTSRA SCT030 FEW040CB

Waarnemingen en weersverwachtingen van meer dan 4000 vliegvelden (METAR en TAF).

De beschikbare stations zijn de gele en rode punten op de kaart.

Ga met uw muis naar het station om de naam te zien.

Klik dan om waarnemingen en weersverwachtingen te zien.

kaart wijzigen: klik op de groene knoppen met een zwart kruis om in te zoomen, op de groene knop met een streepje om uit te zoomen of op de groene pijlen voor aangrenzende kaarten.


METAR-TAF: